Time;durP1;ratioP1;P1;durP2;ratioP2;P2;SDS_P1;SDS_P2;PMS_P1;PMS_P2;Temp;Humidity;BMP_temperature;BMP_pressure;BME280_temperature;BME280_humidity;BME280_pressure;Samples;Min_cycle;Max_cycle;Signal;HPM_P1;HPM_P2
2022/03/10 00:02:10;;;;;;;0.40;0.40;;;2.90;62.70;;;;;;4992596;28;20027;-74
2022/03/10 00:04:37;;;;;;;0.50;0.50;;;2.90;62.90;;;;;;4993682;28;20474;-74
2022/03/10 00:07:04;;;;;;;0.40;0.40;;;2.80;62.90;;;;;;4992447;28;20180;-74
2022/03/10 00:09:31;;;;;;;0.40;0.40;;;2.80;63.30;;;;;;4993665;28;20061;-74
2022/03/10 00:11:56;;;;;;;1.85;1.35;;;2.80;63.00;;;;;;4993566;28;20084;-74
2022/03/10 00:14:22;;;;;;;0.50;0.50;;;2.80;63.00;;;;;;4975176;28;20031;-74
2022/03/10 00:16:49;;;;;;;0.50;0.50;;;2.80;62.90;;;;;;4993459;28;20030;-74
2022/03/10 00:19:16;;;;;;;0.45;0.45;;;2.60;63.60;;;;;;4992425;28;20394;-74
2022/03/10 00:21:45;;;;;;;0.35;0.35;;;2.60;63.80;;;;;;4992336;28;20108;-74
2022/03/10 00:24:11;;;;;;;1.58;0.98;;;2.70;63.70;;;;;;4993407;28;20030;-74
2022/03/10 00:26:38;;;;;;;0.35;0.35;;;2.70;63.70;;;;;;4993492;28;20031;-74
2022/03/10 00:29:05;;;;;;;0.40;0.40;;;2.70;63.00;;;;;;4992018;28;20031;-74
2022/03/10 00:31:31;;;;;;;0.40;0.40;;;2.50;63.90;;;;;;4993256;28;20560;-74
2022/03/10 00:33:56;;;;;;;0.85;0.85;;;2.60;64.20;;;;;;4992019;28;20026;-74
2022/03/10 00:36:23;;;;;;;0.50;0.50;;;2.60;63.80;;;;;;4993112;28;20034;-74
2022/03/10 00:38:49;;;;;;;1.10;1.10;;;2.70;63.80;;;;;;4991957;28;20023;-74
2022/03/10 00:41:15;;;;;;;0.40;0.40;;;2.60;63.50;;;;;;4993269;28;20050;-74
2022/03/10 00:43:41;;;;;;;0.40;0.40;;;2.80;63.60;;;;;;4993122;28;20130;-74
2022/03/10 00:46:07;;;;;;;0.73;0.73;;;2.70;63.40;;;;;;4991935;28;20026;-73
2022/03/10 00:48:33;;;;;;;0.57;0.57;;;2.60;63.70;;;;;;4993092;28;20038;-74
2022/03/10 00:50:59;;;;;;;0.38;0.38;;;2.50;64.50;;;;;;4991752;28;20026;-74
2022/03/10 00:53:24;;;;;;;0.95;0.93;;;2.40;64.70;;;;;;4991737;28;20030;-74
2022/03/10 00:55:51;;;;;;;2.25;1.30;;;2.50;64.60;;;;;;4975523;28;20245;-74
2022/03/10 00:58:16;;;;;;;2.63;0.88;;;2.40;64.20;;;;;;4975490;28;20482;-74
2022/03/10 01:00:42;;;;;;;0.52;0.52;;;2.40;64.60;;;;;;4993010;28;20050;-74
2022/03/10 01:03:08;;;;;;;0.68;0.68;;;2.20;65.00;;;;;;4975483;28;20110;-74
2022/03/10 01:05:34;;;;;;;1.50;1.40;;;2.20;65.40;;;;;;4992887;28;20019;-74
2022/03/10 01:08:00;;;;;;;0.52;0.52;;;2.30;65.50;;;;;;4991488;28;20033;-74
2022/03/10 01:10:26;;;;;;;0.93;0.93;;;2.40;65.10;;;;;;4992772;28;20034;-74
2022/03/10 01:12:52;;;;;;;1.83;1.27;;;2.40;64.50;;;;;;4992851;28;20037;-71
2022/03/10 01:15:21;;;;;;;0.47;0.47;;;2.30;64.10;;;;;;4991467;28;20034;-71
2022/03/10 01:17:47;;;;;;;0.47;0.47;;;2.20;64.50;;;;;;4975326;28;20022;-71
2022/03/10 01:20:13;;;;;;;10.40;1.30;;;2.20;64.60;;;;;;4992766;28;20030;-71
2022/03/10 01:22:39;;;;;;;0.43;0.43;;;2.30;64.40;;;;;;4992740;28;20030;-71
2022/03/10 01:25:07;;;;;;;0.40;0.40;;;2.50;64.30;;;;;;4992975;28;20089;-71
2022/03/10 01:27:33;;;;;;;0.30;0.30;;;2.50;63.60;;;;;;4995522;28;20555;-71
2022/03/10 01:29:59;;;;;;;0.60;0.60;;;2.50;63.90;;;;;;4996676;28;20032;-71
2022/03/10 01:32:25;;;;;;;0.55;0.55;;;2.50;63.70;;;;;;4995489;28;20401;-71
2022/03/10 01:34:51;;;;;;;0.50;0.50;;;2.30;64.40;;;;;;4996587;28;20077;-71
2022/03/10 01:37:18;;;;;;;0.50;0.50;;;2.30;64.70;;;;;;4996437;28;20065;-71
2022/03/10 01:39:44;;;;;;;1.02;1.02;;;2.20;64.90;;;;;;4995414;28;20023;-71
2022/03/10 01:42:10;;;;;;;0.82;0.82;;;2.00;65.40;;;;;;4978961;28;20056;-71
2022/03/10 01:44:37;;;;;;;0.50;0.50;;;2.00;65.70;;;;;;4995100;28;20031;-71
2022/03/10 01:47:05;;;;;;;0.70;0.70;;;1.90;66.00;;;;;;4996334;28;20033;-71
2022/03/10 01:49:32;;;;;;;1.42;1.42;;;1.90;66.30;;;;;;4996370;28;20026;-71
2022/03/10 01:51:59;;;;;;;3.80;3.58;;;2.00;66.50;;;;;;4995004;28;20026;-72
2022/03/10 01:54:25;;;;;;;0.75;0.75;;;1.90;66.10;;;;;;4995105;28;20397;-72
2022/03/10 01:56:50;;;;;;;0.50;0.50;;;1.90;66.50;;;;;;4978631;28;20031;-72
2022/03/10 01:59:18;;;;;;;0.30;0.30;;;1.70;66.90;;;;;;4996214;28;20534;-72
2022/03/10 02:01:44;;;;;;;0.70;0.70;;;1.80;67.30;;;;;;4996164;28;20159;-72
2022/03/10 02:04:10;;;;;;;0.43;0.43;;;1.80;67.10;;;;;;4978582;28;20403;-72
2022/03/10 02:06:36;;;;;;;0.40;0.40;;;1.90;67.20;;;;;;4996064;28;20022;-72
2022/03/10 02:11:48;;;;;;;0.38;0.38;;;1.90;67.20;;;;;;4995914;28;20508;-72
2022/03/10 02:19:43;;;;;;;0.50;0.50;;;2.00;66.80;;;;;;4995840;28;20018;-72
2022/03/10 02:22:11;;;;;;;0.50;0.50;;;2.00;66.30;;;;;;4995694;28;20034;-72
2022/03/10 02:24:38;;;;;;;0.38;0.38;;;1.90;66.50;;;;;;4995758;28;20088;-72
2022/03/10 02:27:20;;;;;;;0.45;0.45;;;1.90;65.60;;;;;;4995661;28;20027;-72
2022/03/10 02:29:48;;;;;;;0.45;0.45;;;2.00;65.60;;;;;;4995659;28;20026;-72
2022/03/10 02:32:14;;;;;;;0.70;0.50;;;2.00;65.50;;;;;;4994354;28;20038;-72
2022/03/10 02:34:41;;;;;;;0.52;0.52;;;2.10;65.00;;;;;;4994220;28;20398;-72
2022/03/10 02:37:08;;;;;;;0.40;0.40;;;2.20;64.80;;;;;;4994300;28;20018;-72
2022/03/10 02:39:34;;;;;;;1.05;1.05;;;2.20;64.70;;;;;;4995402;28;20025;-72
2022/03/10 02:42:00;;;;;;;0.40;0.40;;;2.10;64.50;;;;;;4995401;28;20448;-72
2022/03/10 02:44:26;;;;;;;0.40;0.40;;;2.00;64.80;;;;;;4977810;28;20050;-72
2022/03/10 02:46:52;;;;;;;1.08;0.93;;;2.10;65.00;;;;;;4995283;28;20065;-72
2022/03/10 02:49:18;;;;;;;0.40;0.40;;;2.10;64.70;;;;;;4995298;28;20545;-75
2022/03/10 02:51:44;;;;;;;1.42;1.02;;;2.00;65.20;;;;;;4995299;28;20106;-72
2022/03/10 02:54:10;;;;;;;0.73;0.73;;;2.10;64.80;;;;;;4993912;28;20034;-72
2022/03/10 02:56:36;;;;;;;0.40;0.40;;;2.30;64.40;;;;;;4995128;28;20072;-72
2022/03/10 02:59:02;;;;;;;0.70;0.70;;;2.40;63.90;;;;;;4993821;28;20037;-72
2022/03/10 03:01:28;;;;;;;0.40;0.40;;;2.40;63.90;;;;;;4995171;28;20186;-72
2022/03/10 03:03:55;;;;;;;0.40;0.40;;;2.10;64.10;;;;;;4993794;28;20073;-72
2022/03/10 03:06:20;;;;;;;0.40;0.40;;;2.10;65.10;;;;;;4994907;28;20057;-72
2022/03/10 03:08:47;;;;;;;0.40;0.40;;;2.20;64.30;;;;;;4993697;28;20046;-72
2022/03/10 03:11:13;;;;;;;0.60;0.60;;;2.30;64.20;;;;;;4994732;28;20038;-72
2022/03/10 03:13:39;;;;;;;0.50;0.50;;;2.30;64.00;;;;;;4993612;28;20552;-72
2022/03/10 03:16:05;;;;;;;0.38;0.38;;;2.10;64.20;;;;;;4994796;28;20022;-72
2022/03/10 03:18:30;;;;;;;0.63;0.63;;;2.10;64.30;;;;;;4994644;28;20053;-72
2022/03/10 03:20:56;;;;;;;0.40;0.40;;;2.20;64.30;;;;;;4993640;28;20023;-72
2022/03/10 03:23:23;;;;;;;3.22;3.05;;;2.10;64.30;;;;;;4994697;28;20037;-72
2022/03/10 03:25:50;;;;;;;0.55;0.55;;;1.90;64.90;;;;;;4994596;28;20112;-72
2022/03/10 03:28:16;;;;;;;0.85;0.85;;;1.90;65.50;;;;;;4994608;28;20019;-72
2022/03/10 03:30:42;;;;;;;2.03;1.35;;;1.70;65.70;;;;;;4993352;28;20030;-72
2022/03/10 03:33:08;;;;;;;0.40;0.40;;;1.60;65.90;;;;;;4994482;28;20026;-72
2022/03/10 03:35:34;;;;;;;0.50;0.50;;;1.70;66.30;;;;;;4993015;28;20027;-72
2022/03/10 03:38:00;;;;;;;0.40;0.40;;;1.70;65.80;;;;;;4994264;28;20030;-72
2022/03/10 03:40:26;;;;;;;0.40;0.40;;;1.70;66.10;;;;;;4994342;28;20034;-72
2022/03/10 03:42:52;;;;;;;1.27;1.23;;;1.80;66.00;;;;;;4994328;28;20077;-72
2022/03/10 03:45:18;;;;;;;0.55;0.55;;;1.90;65.50;;;;;;4992968;28;20032;-72
2022/03/10 03:47:43;;;;;;;0.40;0.40;;;2.00;65.50;;;;;;4994047;28;20385;-72
2022/03/10 03:50:10;;;;;;;1.15;1.15;;;2.00;65.30;;;;;;4976598;28;20030;-72
2022/03/10 03:52:36;;;;;;;0.40;0.40;;;2.00;65.20;;;;;;4992882;28;20031;-72
2022/03/10 03:55:02;;;;;;;1.17;1.15;;;2.00;65.40;;;;;;4993960;28;20034;-72
2022/03/10 03:57:27;;;;;;;0.40;0.40;;;2.00;65.40;;;;;;4992758;28;20260;-72
2022/03/10 03:59:53;;;;;;;0.40;0.40;;;1.90;65.50;;;;;;4992763;28;20022;-72
2022/03/10 04:02:19;;;;;;;0.40;0.40;;;1.90;66.20;;;;;;4993974;28;20026;-72
2022/03/10 04:04:44;;;;;;;0.40;0.40;;;2.00;66.20;;;;;;4993806;28;20022;-72
2022/03/10 04:07:10;;;;;;;0.50;0.50;;;1.90;65.70;;;;;;4992524;28;20398;-72
2022/03/10 04:09:36;;;;;;;0.40;0.40;;;1.80;65.80;;;;;;4992524;28;20062;-72
2022/03/10 04:12:02;;;;;;;0.60;0.60;;;1.70;66.80;;;;;;4992496;28;20445;-72
2022/03/10 04:14:28;;;;;;;0.43;0.43;;;1.50;66.70;;;;;;4992623;28;20149;-72
2022/03/10 04:16:54;;;;;;;4.05;1.95;;;1.10;67.80;;;;;;4992299;28;20116;-72
2022/03/10 04:19:20;;;;;;;0.50;0.50;;;0.90;68.90;;;;;;4992253;28;20038;-72
2022/03/10 04:21:46;;;;;;;0.40;0.40;;;0.80;69.50;;;;;;4993562;28;20097;-72
2022/03/10 04:24:11;;;;;;;2.00;1.27;;;0.70;69.50;;;;;;4993489;28;20150;-72
2022/03/10 04:26:38;;;;;;;0.40;0.40;;;0.80;69.70;;;;;;4992391;28;20050;-72
2022/03/10 04:29:04;;;;;;;5.15;1.70;;;0.90;69.80;;;;;;4992144;28;20030;-72
2022/03/10 04:31:30;;;;;;;0.40;0.40;;;0.90;69.00;;;;;;4993349;28;20026;-72
2022/03/10 04:33:55;;;;;;;0.40;0.40;;;0.80;69.80;;;;;;4992015;28;20180;-72
2022/03/10 04:36:22;;;;;;;0.45;0.45;;;1.10;69.70;;;;;;4993481;28;20030;-72
2022/03/10 04:38:47;;;;;;;0.40;0.40;;;1.20;69.10;;;;;;4993506;28;20058;-72
2022/03/10 04:41:13;;;;;;;0.47;0.47;;;1.30;68.60;;;;;;4993295;28;20057;-72
2022/03/10 04:43:39;;;;;;;0.43;0.43;;;1.50;68.20;;;;;;4991867;28;20034;-72
2022/03/10 04:46:06;;;;;;;0.40;0.40;;;1.50;67.70;;;;;;4993289;28;20026;-72
2022/03/10 04:48:32;;;;;;;0.40;0.40;;;1.40;67.90;;;;;;4993072;28;20068;-72
2022/03/10 04:50:57;;;;;;;3.08;2.85;;;1.40;67.90;;;;;;4993095;28;20030;-72
2022/03/10 04:53:23;;;;;;;0.40;0.40;;;1.50;67.60;;;;;;4975539;28;20101;-72
2022/03/10 04:55:49;;;;;;;1.05;1.05;;;1.50;67.60;;;;;;4991734;28;20037;-72
2022/03/10 04:58:15;;;;;;;2.42;1.85;;;1.50;67.30;;;;;;4991809;28;20022;-72
2022/03/10 05:00:40;;;;;;;0.40;0.40;;;1.40;68.00;;;;;;4991297;28;20367;-72
2022/03/10 05:03:06;;;;;;;0.47;0.47;;;1.30;67.90;;;;;;4991525;28;20027;-72
2022/03/10 05:05:32;;;;;;;0.40;0.40;;;1.50;67.80;;;;;;4992824;28;20566;-72
2022/03/10 05:07:58;;;;;;;0.40;0.40;;;1.60;67.60;;;;;;4992888;28;20022;-72
2022/03/10 05:10:24;;;;;;;0.40;0.40;;;1.60;67.20;;;;;;4992640;28;20073;-72
2022/03/10 05:15:23;;;;;;;0.40;0.40;;;1.70;67.40;;;;;;5009014;28;20069;-71
2022/03/10 05:17:50;;;;;;;0.63;0.63;;;1.70;67.50;;;;;;5012324;28;20025;-71
2022/03/10 05:20:16;;;;;;;1.02;1.02;;;1.70;67.20;;;;;;5012062;28;20022;-71
2022/03/10 05:22:48;;;;;;;0.40;0.40;;;1.70;67.10;;;;;;5010829;28;20428;-71
2022/03/10 05:25:15;;;;;;;1.10;0.70;;;1.80;67.10;;;;;;5010763;28;20481;-72
2022/03/10 05:27:42;;;;;;;1.35;1.25;;;1.70;66.80;;;;;;5010592;28;20072;-72
2022/03/10 05:30:09;;;;;;;0.88;0.88;;;1.50;67.00;;;;;;5012173;28;20033;-72
2022/03/10 05:32:35;;;;;;;0.50;0.50;;;1.20;67.70;;;;;;4994406;28;20061;-72
2022/03/10 05:35:01;;;;;;;0.50;0.50;;;0.90;68.80;;;;;;5011563;28;20045;-72
2022/03/10 05:37:27;;;;;;;0.40;0.40;;;0.70;70.00;;;;;;4994123;28;20026;-71
2022/03/10 05:39:53;;;;;;;0.50;0.50;;;0.60;70.10;;;;;;5012135;28;20429;-72
2022/03/10 05:42:18;;;;;;;0.40;0.40;;;0.80;70.60;;;;;;5011985;28;20053;-72
2022/03/10 05:44:44;;;;;;;0.88;0.88;;;1.00;70.10;;;;;;5011780;28;20076;-71
2022/03/10 05:47:10;;;;;;;0.80;0.80;;;1.00;69.20;;;;;;5011628;28;20397;-72
2022/03/10 05:49:36;;;;;;;0.50;0.50;;;0.90;68.90;;;;;;5011949;28;20101;-72
2022/03/10 05:52:03;;;;;;;2.15;2.05;;;0.60;69.60;;;;;;5011880;28;20524;-72
2022/03/10 05:54:29;;;;;;;0.60;0.60;;;0.30;70.90;;;;;;5010475;28;20057;-71
2022/03/10 05:56:54;;;;;;;0.50;0.50;;;0.20;71.60;;;;;;5011688;28;20037;-72
2022/03/10 05:59:20;;;;;;;0.60;0.60;;;0.30;72.10;;;;;;5011620;28;20092;-72
2022/03/10 06:01:46;;;;;;;0.68;0.68;;;0.30;72.10;;;;;;5011640;28;20076;-72
2022/03/10 06:04:12;;;;;;;2.55;2.45;;;0.30;72.10;;;;;;5011654;28;20022;-73
2022/03/10 06:06:38;;;;;;;1.55;1.08;;;0.30;71.90;;;;;;5010459;28;20026;-73
2022/03/10 06:09:03;;;;;;;0.85;0.85;;;0.50;71.80;;;;;;5010393;28;20045;-73
2022/03/10 06:11:29;;;;;;;8.25;1.73;;;0.60;71.30;;;;;;5012453;28;20041;-72
2022/03/10 06:13:55;;;;;;;0.40;0.40;;;0.50;71.30;;;;;;5015282;28;20511;-72
2022/03/10 06:16:21;;;;;;;0.40;0.40;;;0.50;71.50;;;;;;5014989;28;20050;-73
2022/03/10 06:18:47;;;;;;;0.40;0.40;;;0.70;71.90;;;;;;5015287;28;20030;-73
2022/03/10 06:21:13;;;;;;;0.40;0.40;;;0.90;71.50;;;;;;5014255;28;20030;-72
2022/03/10 06:23:39;;;;;;;2.78;2.55;;;1.00;71.00;;;;;;5015085;28;20032;-72
2022/03/10 06:26:04;;;;;;;4.38;1.75;;;1.10;71.00;;;;;;5015529;28;20107;-73
2022/03/10 06:28:31;;;;;;;0.40;0.40;;;1.30;70.90;;;;;;5015136;28;20505;-72
2022/03/10 06:30:57;;;;;;;0.47;0.47;;;1.50;70.30;;;;;;5015464;28;20497;-72
2022/03/10 06:33:23;;;;;;;0.40;0.40;;;1.60;70.40;;;;;;5015169;28;20101;-72
2022/03/10 06:35:48;;;;;;;0.40;0.40;;;1.70;69.90;;;;;;5014741;28;20125;-72
2022/03/10 06:38:14;;;;;;;0.50;0.50;;;1.80;69.00;;;;;;5014770;28;20030;-72
2022/03/10 06:40:40;;;;;;;3.45;3.25;;;1.90;68.50;;;;;;5014868;28;20021;-71
2022/03/10 06:43:06;;;;;;;0.47;0.47;;;2.10;68.30;;;;;;5013484;28;20076;-71
2022/03/10 06:45:32;;;;;;;0.47;0.47;;;2.10;67.80;;;;;;5013867;28;20581;-72
2022/03/10 06:47:58;;;;;;;0.50;0.50;;;2.20;68.10;;;;;;5014649;28;20044;-72
2022/03/10 06:50:24;;;;;;;0.40;0.40;;;2.20;68.00;;;;;;5014654;28;20026;-73
2022/03/10 06:52:52;;;;;;;0.40;0.40;;;2.40;68.00;;;;;;5014296;28;20030;-72
2022/03/10 06:55:19;;;;;;;0.40;0.40;;;2.50;67.90;;;;;;5014634;28;20022;-72
2022/03/10 06:57:46;;;;;;;0.50;0.50;;;2.70;67.50;;;;;;5013103;28;20421;-72
2022/03/10 07:00:13;;;;;;;0.40;0.40;;;2.70;66.40;;;;;;5013255;28;20101;-72
2022/03/10 07:02:39;;;;;;;0.40;0.40;;;2.90;65.80;;;;;;5014516;28;20021;-72
2022/03/10 07:05:07;;;;;;;0.40;0.40;;;3.20;65.40;;;;;;5012934;28;20542;-72
2022/03/10 07:07:33;;;;;;;1.20;1.20;;;3.30;65.10;;;;;;5013211;28;20084;-72
2022/03/10 07:09:58;;;;;;;0.35;0.35;;;3.30;64.70;;;;;;5014356;28;20038;-72
2022/03/10 07:12:27;;;;;;;0.40;0.40;;;3.40;65.00;;;;;;5013036;28;20021;-72
2022/03/10 07:14:53;;;;;;;0.40;0.40;;;3.40;65.80;;;;;;5014061;28;20080;-72
2022/03/10 07:17:19;;;;;;;0.40;0.40;;;3.50;65.90;;;;;;5014114;28;20053;-72
2022/03/10 07:19:45;;;;;;;0.40;0.40;;;3.80;66.10;;;;;;5012907;28;20025;-73
2022/03/10 07:22:16;;;;;;;0.45;0.45;;;3.80;66.50;;;;;;5013453;28;20535;-72
2022/03/10 07:24:42;;;;;;;1.02;0.98;;;3.90;67.60;;;;;;5013865;28;20014;-72
2022/03/10 07:27:07;;;;;;;0.30;0.30;;;4.00;68.00;;;;;;5013941;28;20096;-72
2022/03/10 07:29:33;;;;;;;0.40;0.40;;;4.20;68.90;;;;;;5028972;28;20363;-72
2022/03/10 07:31:59;;;;;;;0.85;0.85;;;4.30;69.40;;;;;;5013828;28;20088;-72
2022/03/10 07:34:25;;;;;;;0.40;0.40;;;4.30;69.10;;;;;;5013610;28;20025;-72
2022/03/10 07:36:50;;;;;;;0.40;0.40;;;4.20;69.50;;;;;;5013651;28;20030;-72
2022/03/10 07:39:16;;;;;;;0.30;0.30;;;4.20;69.40;;;;;;5013152;28;20032;-72
2022/03/10 07:41:42;;;;;;;1.50;1.48;;;4.30;69.10;;;;;;5013166;28;20022;-72
2022/03/10 07:44:08;;;;;;;0.30;0.30;;;4.10;68.00;;;;;;5012323;28;20036;-72
2022/03/10 07:46:34;;;;;;;0.40;0.40;;;4.00;69.40;;;;;;5013030;28;20117;-72
2022/03/10 07:49:00;;;;;;;1.30;1.08;;;4.10;70.60;;;;;;5013494;28;20018;-72
2022/03/10 07:51:26;;;;;;;3.00;1.20;;;4.30;70.30;;;;;;5013415;28;20049;-72
2022/03/10 07:53:51;;;;;;;0.60;0.60;;;4.40;69.40;;;;;;5012138;28;20367;-73
2022/03/10 07:56:17;;;;;;;0.40;0.40;;;4.60;68.80;;;;;;5013079;28;20029;-72
2022/03/10 07:58:43;;;;;;;0.60;0.60;;;4.60;67.60;;;;;;5012267;28;20049;-72
2022/03/10 08:01:09;;;;;;;0.60;0.60;;;4.60;67.10;;;;;;5013209;28;20029;-75
2022/03/10 08:03:36;;;;;;;0.70;0.70;;;4.80;66.90;;;;;;5012086;28;20513;-76
2022/03/10 08:06:02;;;;;;;0.50;0.50;;;4.90;66.80;;;;;;5013327;28;20045;-75
2022/03/10 08:08:28;;;;;;;0.40;0.40;;;5.00;64.80;;;;;;5013064;28;20482;-75
2022/03/10 08:10:54;;;;;;;0.20;0.20;;;5.00;63.30;;;;;;5012161;28;20548;-74
2022/03/10 08:13:24;;;;;;;5.75;1.45;;;4.90;63.40;;;;;;5011704;28;20069;-75
2022/03/10 08:15:50;;;;;;;1.67;0.85;;;5.00;63.30;;;;;;5013111;28;20045;-75
2022/03/10 08:18:17;;;;;;;1.45;1.35;;;5.00;64.10;;;;;;5010941;28;20084;-74
2022/03/10 08:20:42;;;;;;;2.25;2.15;;;4.80;65.20;;;;;;5013084;28;20029;-74
2022/03/10 08:23:09;;;;;;;0.30;0.30;;;4.90;66.30;;;;;;4995259;28;20030;-75
2022/03/10 08:25:36;;;;;;;2.95;1.02;;;5.00;65.40;;;;;;5011684;28;20026;-75
2022/03/10 08:28:03;;;;;;;0.30;0.30;;;5.10;65.00;;;;;;5011384;28;20029;-75
2022/03/10 08:30:29;;;;;;;1.45;0.60;;;5.10;64.80;;;;;;5011404;28;20038;-74
2022/03/10 08:32:55;;;;;;;0.90;0.90;;;5.20;63.90;;;;;;5012704;28;20103;-75
2022/03/10 08:35:20;;;;;;;0.30;0.30;;;5.30;63.30;;;;;;5011775;28;20021;-76
2022/03/10 08:37:46;;;;;;;2.92;1.42;;;5.30;63.20;;;;;;4994987;28;20500;-75
2022/03/10 08:40:18;;;;;;;1.38;1.35;;;5.40;62.80;;;;;;5012578;28;20049;-75
2022/03/10 08:42:44;;;;;;;0.50;0.50;;;5.50;62.20;;;;;;5013350;28;20030;-74
2022/03/10 08:45:10;;;;;;;1.50;1.40;;;5.60;62.20;;;;;;5013224;28;20018;-75
2022/03/10 08:47:36;;;;;;;2.45;0.63;;;5.90;64.10;;;;;;5012925;28;20045;-74
2022/03/10 08:50:03;;;;;;;0.80;0.80;;;6.00;59.50;;;;;;5011366;28;20390;-74
2022/03/10 08:52:29;;;;;;;0.52;0.52;;;6.10;58.90;;;;;;5013239;28;20553;-75
2022/03/10 08:54:55;;;;;;;1.85;1.23;;;6.20;58.60;;;;;;5012992;28;20365;-74
2022/03/10 08:57:21;;;;;;;0.30;0.30;;;6.10;58.30;;;;;;4993941;28;20065;-74
2022/03/10 08:59:47;;;;;;;0.30;0.30;;;6.20;58.90;;;;;;5012313;28;20453;-74
2022/03/10 09:02:12;;;;;;;1.25;1.10;;;6.10;58.60;;;;;;5011014;28;20097;-72
2022/03/10 09:04:39;;;;;;;0.50;0.50;;;6.20;58.80;;;;;;5008971;28;20126;-71
2022/03/10 09:07:05;;;;;;;0.68;0.68;;;6.30;58.70;;;;;;5010167;28;20033;-71
2022/03/10 09:09:31;;;;;;;0.38;0.38;;;6.30;58.80;;;;;;5010870;28;20095;-72
2022/03/10 09:11:57;;;;;;;8.65;2.28;;;6.40;58.70;;;;;;5010852;28;20022;-72
2022/03/10 09:14:23;;;;;;;1.55;0.75;;;6.70;57.80;;;;;;5012009;28;20044;-71
2022/03/10 09:16:51;;;;;;;3.70;0.93;;;6.90;57.50;;;;;;5012109;28;20026;-71
2022/03/10 09:19:17;;;;;;;4.65;1.13;;;7.10;56.40;;;;;;5010993;28;20030;-72
2022/03/10 09:21:43;;;;;;;0.90;0.90;;;7.30;55.70;;;;;;5012438;28;20509;-72
2022/03/10 09:24:09;;;;;;;0.68;0.68;;;7.70;55.50;;;;;;5012579;28;20021;-72
2022/03/10 09:26:35;;;;;;;0.88;0.88;;;8.00;54.30;;;;;;5011655;28;20033;-72
2022/03/10 09:29:02;;;;;;;0.73;0.73;;;8.20;54.20;;;;;;5012355;28;20014;-72
2022/03/10 09:31:27;;;;;;;0.45;0.45;;;8.60;53.60;;;;;;5010870;28;20026;-72
2022/03/10 09:33:53;;;;;;;1.52;1.42;;;8.90;53.00;;;;;;5010650;28;20469;-72
2022/03/10 09:36:19;;;;;;;1.70;1.60;;;9.20;52.10;;;;;;5012471;28;20030;-72
2022/03/10 09:38:46;;;;;;;0.73;0.50;;;9.60;51.10;;;;;;5012038;28;20026;-71
2022/03/10 09:41:12;;;;;;;0.40;0.40;;;9.40;50.10;;;;;;5011021;28;20105;-71
2022/03/10 09:43:39;;;;;;;1.45;1.35;;;9.60;50.00;;;;;;5012523;28;20028;-71
2022/03/10 09:46:09;;;;;;;2.92;2.58;;;9.60;49.90;;;;;;5011718;28;20393;-70
2022/03/10 09:48:36;;;;;;;2.50;2.08;;;9.90;49.50;;;;;;5015496;28;20501;-71
2022/03/10 09:51:02;;;;;;;1.52;1.10;;;10.20;48.70;;;;;;5015943;28;20060;-71
2022/03/10 09:53:30;;;;;;;2.50;1.27;;;10.50;48.50;;;;;;5016303;28;20062;-70
2022/03/10 09:55:56;;;;;;;0.57;0.57;;;10.60;48.30;;;;;;5015400;28;20437;-71
2022/03/10 09:58:22;;;;;;;2.25;1.40;;;10.80;47.90;;;;;;5015577;28;20060;-71
2022/03/10 10:00:48;;;;;;;1.35;0.90;;;10.90;47.10;;;;;;5015897;28;20064;-71
2022/03/10 10:03:13;;;;;;;2.85;1.25;;;11.00;46.60;;;;;;5015964;28;20026;-72
2022/03/10 10:05:40;;;;;;;10.55;2.03;;;11.20;46.20;;;;;;5015895;28;20524;-72
2022/03/10 10:08:17;;;;;;;1.08;0.90;;;11.20;46.50;;;;;;5016068;28;20046;-72
2022/03/10 10:10:48;;;;;;;4.50;2.47;;;11.50;46.40;;;;;;5016425;28;20087;-71
2022/03/10 10:13:28;;;;;;;2.75;1.98;;;11.60;45.90;;;;;;5014896;28;20030;-71
2022/03/10 10:16:05;;;;;;;3.22;1.73;;;11.40;46.20;;;;;;5015570;28;20034;-71
2022/03/10 10:18:33;;;;;;;7.43;3.90;;;11.70;46.00;;;;;;5015762;28;20018;-72
2022/03/10 10:20:59;;;;;;;1.33;0.40;;;11.80;46.00;;;;;;5014362;28;20022;-72
2022/03/10 10:23:33;;;;;;;4.75;2.15;;;12.10;45.80;;;;;;5015364;28;20033;-72
2022/03/10 10:26:01;;;;;;;11.07;3.88;;;12.20;45.30;;;;;;5014720;28;20149;-72
2022/03/10 10:28:31;;;;;;;1.70;1.55;;;12.30;44.60;;;;;;5013680;28;20042;-71
2022/03/10 10:31:03;;;;;;;4.00;3.55;;;12.60;44.40;;;;;;5015138;28;20417;-73
2022/03/10 10:33:30;;;;;;;;;;;12.70;43.50;;;;;;5013446;28;20018;-70
2022/03/10 10:36:15;;;;;;;3.40;1.85;;;12.80;43.30;;;;;;5014526;28;19909;-71
2022/03/10 10:38:42;;;;;;;3.33;1.95;;;12.70;43.30;;;;;;5013238;28;20029;-71
2022/03/10 10:41:31;;;;;;;6.65;3.83;;;12.90;42.70;;;;;;5014486;28;20038;-72
2022/03/10 10:43:58;;;;;;;4.40;2.05;;;12.90;42.30;;;;;;5014256;28;20504;-71
2022/03/10 10:46:33;;;;;;;3.45;2.08;;;12.90;42.60;;;;;;5014039;28;20029;-71
2022/03/10 10:49:02;;;;;;;4.47;2.58;;;12.90;42.40;;;;;;5012853;28;20030;-71
2022/03/10 10:51:32;;;;;;;1.15;0.50;;;12.90;42.60;;;;;;5013791;28;20030;-72
2022/03/10 10:54:00;;;;;;;1.08;0.95;;;12.90;42.50;;;;;;5014474;28;20026;-72
2022/03/10 10:56:29;;;;;;;1.67;1.58;;;13.30;42.30;;;;;;5014497;28;20021;-72
2022/03/10 10:58:55;;;;;;;2.95;1.95;;;13.20;44.20;;;;;;5012630;28;20021;-72
2022/03/10 11:01:32;;;;;;;1.20;1.17;;;13.50;42.50;;;;;;5013488;28;20022;-73
2022/03/10 11:03:59;;;;;;;2.50;0.98;;;13.50;42.10;;;;;;5013091;28;20046;-71
2022/03/10 11:06:25;;;;;;;2.60;1.48;;;13.80;41.60;;;;;;5014088;28;20030;-70
2022/03/10 11:08:52;;;;;;;0.57;0.57;;;13.70;41.40;;;;;;5013347;28;20100;-70
2022/03/10 11:11:20;;;;;;;2.45;1.52;;;14.10;41.20;;;;;;5014063;28;20030;-70
2022/03/10 11:13:47;;;;;;;2.30;1.08;;;14.40;41.40;;;;;;5013853;28;20037;-71
2022/03/10 11:16:14;;;;;;;3.60;2.33;;;14.60;40.70;;;;;;5013577;28;20037;-71
2022/03/10 11:18:43;;;;;;;1.85;1.27;;;14.60;40.80;;;;;;5013658;28;20033;-71
2022/03/10 11:21:28;;;;;;;3.63;1.90;;;14.60;40.60;;;;;;5013848;28;20021;-71
2022/03/10 11:24:21;;;;;;;0.40;0.40;;;14.80;42.00;;;;;;5013839;28;20026;-69
2022/03/10 11:27:07;;;;;;;4.35;1.83;;;14.60;41.30;;;;;;5013949;28;20028;-69
2022/03/10 11:29:34;;;;;;;0.73;0.73;;;14.50;41.40;;;;;;5013895;28;20030;-69
2022/03/10 11:32:03;;;;;;;1.55;1.45;;;14.50;41.30;;;;;;5012643;28;20022;-69
2022/03/10 11:34:54;;;;;;;0.82;0.82;;;14.50;41.30;;;;;;5013881;28;20018;-70
2022/03/10 11:37:34;;;;;;;4.68;1.88;;;14.40;41.50;;;;;;5013621;28;20474;-69
2022/03/10 11:40:01;;;;;;;6.45;2.85;;;14.40;41.30;;;;;;5013667;28;20077;-72
2022/03/10 11:42:29;;;;;;;2.75;2.38;;;14.30;41.30;;;;;;5013373;28;20054;-72
2022/03/10 11:45:16;;;;;;;1.55;1.27;;;14.00;41.80;;;;;;5012446;28;20485;-72
2022/03/10 11:47:42;;;;;;;3.85;2.55;;;14.30;41.90;;;;;;5010855;28;20061;-73
2022/03/10 11:50:24;;;;;;;3.15;2.85;;;14.60;42.00;;;;;;5012522;28;20022;-71
2022/03/10 11:53:12;;;;;;;3.13;2.83;;;14.50;41.90;;;;;;5028171;28;20028;-72
2022/03/10 11:55:39;;;;;;;3.83;1.55;;;14.60;41.90;;;;;;5012366;28;20030;-71
2022/03/10 11:58:05;;;;;;;1.35;1.25;;;14.70;40.90;;;;;;5013080;28;20052;-71
2022/03/10 12:00:40;;;;;;;1.92;1.52;;;14.70;41.30;;;;;;5011953;28;20022;-71
2022/03/10 12:03:07;;;;;;;1.80;1.15;;;15.00;41.30;;;;;;5011610;28;20021;-71
2022/03/10 12:05:53;;;;;;;2.78;0.63;;;15.10;40.90;;;;;;5012771;28;20500;-71
2022/03/10 12:08:20;;;;;;;0.88;0.73;;;15.30;41.10;;;;;;5011791;28;20026;-72
2022/03/10 12:10:47;;;;;;;1.95;1.35;;;15.40;41.10;;;;;;5013211;28;20030;-71
2022/03/10 12:13:36;;;;;;;4.13;2.55;;;15.50;40.70;;;;;;5011510;28;20088;-71
2022/03/10 12:16:30;;;;;;;1.75;1.27;;;15.20;40.30;;;;;;5013003;28;20021;-73
2022/03/10 12:18:56;;;;;;;0.65;0.65;;;15.20;41.40;;;;;;5011393;28;20034;-72
2022/03/10 12:21:25;;;;;;;1.52;1.42;;;15.60;40.90;;;;;;5011651;28;20034;-72
2022/03/10 12:24:03;;;;;;;1.08;1.02;;;16.30;39.40;;;;;;5012983;28;20052;-72
2022/03/10 12:26:32;;;;;;;0.65;0.65;;;17.00;38.40;;;;;;5012605;28;20022;-71
2022/03/10 12:29:02;;;;;;;0.40;0.40;;;17.00;37.30;;;;;;4994940;28;20034;-72
2022/03/10 12:31:32;;;;;;;2.38;1.10;;;16.70;38.70;;;;;;5011502;28;20029;-71
2022/03/10 12:34:01;;;;;;;10.05;1.83;;;16.80;37.80;;;;;;5010664;28;20446;-72
2022/03/10 12:36:33;;;;;;;6.93;1.75;;;16.40;38.10;;;;;;5012538;28;20427;-72
2022/03/10 12:39:01;;;;;;;2.50;1.50;;;16.50;37.90;;;;;;5012401;28;20036;-72
2022/03/10 12:41:33;;;;;;;2.45;1.25;;;16.80;37.00;;;;;;5011266;28;20022;-72
2022/03/10 12:44:02;;;;;;;0.55;0.55;;;16.70;37.30;;;;;;5012462;28;20489;-72
2022/03/10 12:46:29;;;;;;;0.80;0.80;;;16.50;38.00;;;;;;5012283;28;20025;-72
2022/03/10 12:48:57;;;;;;;2.70;2.08;;;16.40;38.50;;;;;;5011067;28;20560;-72
2022/03/10 12:51:29;;;;;;;2.78;1.42;;;16.30;38.50;;;;;;5010899;28;20032;-72
2022/03/10 12:53:56;;;;;;;2.40;0.90;;;16.30;39.30;;;;;;5011193;28;20390;-71
2022/03/10 12:56:22;;;;;;;0.75;0.50;;;16.10;39.40;;;;;;5012264;28;20025;-72
2022/03/10 12:58:50;;;;;;;0.63;0.57;;;15.70;39.20;;;;;;5010864;28;20057;-71
2022/03/10 13:01:16;;;;;;;15.52;2.45;;;15.60;39.20;;;;;;5012060;28;20030;-72
2022/03/10 13:03:50;;;;;;;0.95;0.93;;;15.20;39.00;;;;;;5012154;28;20225;-74
2022/03/10 13:06:17;;;;;;;11.10;3.13;;;15.40;39.00;;;;;;4994415;28;20125;-72
2022/03/10 13:08:56;;;;;;;1.17;0.50;;;15.60;38.30;;;;;;5012540;28;20076;-72